sensor_id;sensor_type;location;lat;lon;timestamp;pressure;altitude;pressure_sealevel;temperature;humidity
16100;BME280;8154;50.830;12.082;2023-01-08T00:01:14;98782.50;;;23.30;33.91
16100;BME280;8154;50.830;12.082;2023-01-08T02:10:18;98722.84;;;23.11;34.40
16100;BME280;8154;50.830;12.082;2023-01-08T02:13:07;98717.25;;;23.19;34.04
16100;BME280;8154;50.830;12.082;2023-01-08T02:16:11;98720.97;;;23.31;34.01
16100;BME280;8154;50.830;12.082;2023-01-08T02:18:44;98713.13;;;23.36;33.75
16100;BME280;8154;50.830;12.082;2023-01-08T02:26:37;98691.75;;;23.43;33.55
16100;BME280;8154;50.830;12.082;2023-01-08T02:29:11;98691.16;;;23.41;33.73
16100;BME280;8154;50.830;12.082;2023-01-08T02:31:42;98684.84;;;23.35;33.58
16100;BME280;8154;50.830;12.082;2023-01-08T02:34:13;98686.72;;;23.22;33.85
16100;BME280;8154;50.830;12.082;2023-01-08T02:36:49;98673.19;;;23.17;34.15
16100;BME280;8154;50.830;12.082;2023-01-08T02:52:53;98659.75;;;23.43;33.65
16100;BME280;8154;50.830;12.082;2023-01-08T02:55:22;98662.53;;;23.30;33.93
16100;BME280;8154;50.830;12.082;2023-01-08T02:57:52;98663.13;;;23.25;33.94
16100;BME280;8154;50.830;12.082;2023-01-08T03:00:21;98658.81;;;23.31;33.90
16100;BME280;8154;50.830;12.082;2023-01-08T03:02:52;98657.56;;;23.33;33.88
16100;BME280;8154;50.830;12.082;2023-01-08T03:05:26;98649.34;;;23.35;33.92
16100;BME280;8154;50.830;12.082;2023-01-08T03:07:55;98651.25;;;23.28;33.76
16100;BME280;8154;50.830;12.082;2023-01-08T03:10:24;98650.63;;;23.19;34.11
16100;BME280;8154;50.830;12.082;2023-01-08T03:13:04;98654.50;;;23.23;34.09
16100;BME280;8154;50.830;12.082;2023-01-08T03:15:44;98652.00;;;23.35;33.90
16100;BME280;8154;50.830;12.082;2023-01-08T03:18:16;98640.69;;;23.39;33.90
16100;BME280;8154;50.830;12.082;2023-01-08T03:20:48;98631.69;;;23.40;33.51
16100;BME280;8154;50.830;12.082;2023-01-08T03:23:17;98643.72;;;23.49;33.62
16100;BME280;8154;50.830;12.082;2023-01-08T03:25:47;98643.94;;;23.48;33.64
16100;BME280;8154;50.830;12.082;2023-01-08T03:28:23;98635.97;;;23.41;33.68
16100;BME280;8154;50.830;12.082;2023-01-08T03:30:57;98657.72;;;23.45;33.42
16100;BME280;8154;50.830;12.082;2023-01-08T03:33:26;98651.75;;;23.43;33.40
16100;BME280;8154;50.830;12.082;2023-01-08T03:35:57;98656.13;;;23.37;33.50
16100;BME280;8154;50.830;12.082;2023-01-08T03:38:30;98655.16;;;23.19;33.88
16100;BME280;8154;50.830;12.082;2023-01-08T03:41:10;98663.19;;;23.06;34.21
16100;BME280;8154;50.830;12.082;2023-01-08T03:43:40;98667.69;;;23.12;34.19
16100;BME280;8154;50.830;12.082;2023-01-08T03:46:14;98659.66;;;23.25;34.05
16100;BME280;8154;50.830;12.082;2023-01-08T03:48:43;98661.44;;;23.37;33.78
16100;BME280;8154;50.830;12.082;2023-01-08T03:51:11;98656.03;;;23.50;33.46
16100;BME280;8154;50.830;12.082;2023-01-08T03:53:41;98660.56;;;23.50;33.67
16100;BME280;8154;50.830;12.082;2023-01-08T03:56:09;98650.72;;;23.44;33.38
16100;BME280;8154;50.830;12.082;2023-01-08T03:58:36;98652.38;;;23.45;33.77
16100;BME280;8154;50.830;12.082;2023-01-08T04:01:04;98648.25;;;23.42;33.24
16100;BME280;8154;50.830;12.082;2023-01-08T04:03:32;98639.72;;;23.34;33.72
16100;BME280;8154;50.830;12.082;2023-01-08T04:06:00;98649.78;;;23.32;33.60
16100;BME280;8154;50.830;12.082;2023-01-08T04:08:27;98648.34;;;23.29;33.58
16100;BME280;8154;50.830;12.082;2023-01-08T04:10:55;98642.63;;;23.19;33.97
16100;BME280;8154;50.830;12.082;2023-01-08T04:13:26;98641.81;;;23.25;33.84
16100;BME280;8154;50.830;12.082;2023-01-08T04:15:56;98658.63;;;23.19;33.99
16100;BME280;8154;50.830;12.082;2023-01-08T04:18:24;98647.59;;;23.16;34.06
16100;BME280;8154;50.830;12.082;2023-01-08T04:20:51;98639.75;;;23.27;33.88
16100;BME280;8154;50.830;12.082;2023-01-08T04:23:18;98635.00;;;23.36;33.72
16100;BME280;8154;50.830;12.082;2023-01-08T04:25:46;98633.97;;;23.37;33.38
16100;BME280;8154;50.830;12.082;2023-01-08T04:28:13;98627.38;;;23.39;33.64
16100;BME280;8154;50.830;12.082;2023-01-08T04:30:41;98632.34;;;23.36;33.45
16100;BME280;8154;50.830;12.082;2023-01-08T04:33:08;98617.78;;;23.32;33.73
16100;BME280;8154;50.830;12.082;2023-01-08T04:35:35;98616.78;;;23.26;33.89
16100;BME280;8154;50.830;12.082;2023-01-08T04:38:04;98612.44;;;23.32;33.68
16100;BME280;8154;50.830;12.082;2023-01-08T04:40:32;98612.88;;;23.29;33.56
16100;BME280;8154;50.830;12.082;2023-01-08T04:43:03;98604.25;;;23.27;33.62
16100;BME280;8154;50.830;12.082;2023-01-08T04:45:31;98601.97;;;23.37;33.65
16100;BME280;8154;50.830;12.082;2023-01-08T04:47:59;98600.28;;;23.42;33.44
16100;BME280;8154;50.830;12.082;2023-01-08T04:50:26;98599.44;;;23.48;33.59
16100;BME280;8154;50.830;12.082;2023-01-08T04:52:53;98595.72;;;23.49;33.52
16100;BME280;8154;50.830;12.082;2023-01-08T04:55:21;98595.00;;;23.36;33.56
16100;BME280;8154;50.830;12.082;2023-01-08T04:57:50;98597.91;;;23.21;33.86
16100;BME280;8154;50.830;12.082;2023-01-08T05:00:18;98596.25;;;23.27;33.73
16100;BME280;8154;50.830;12.082;2023-01-08T05:02:46;98594.41;;;23.34;33.75
16100;BME280;8154;50.830;12.082;2023-01-08T05:05:13;98582.53;;;23.30;33.78
16100;BME280;8154;50.830;12.082;2023-01-08T05:07:41;98585.59;;;23.27;33.87
16100;BME280;8154;50.830;12.082;2023-01-08T05:10:08;98578.84;;;23.24;33.84
16100;BME280;8154;50.830;12.082;2023-01-08T05:12:39;98578.22;;;23.22;33.82
16100;BME280;8154;50.830;12.082;2023-01-08T05:15:07;98582.94;;;23.27;33.72
16100;BME280;8154;50.830;12.082;2023-01-08T05:17:35;98583.03;;;23.45;33.51
16100;BME280;8154;50.830;12.082;2023-01-08T05:20:03;98584.16;;;23.31;33.79
16100;BME280;8154;50.830;12.082;2023-01-08T05:22:31;98583.75;;;23.21;34.03
16100;BME280;8154;50.830;12.082;2023-01-08T05:24:58;98563.03;;;23.29;33.75
16100;BME280;8154;50.830;12.082;2023-01-08T05:27:27;98570.84;;;23.31;33.59
16100;BME280;8154;50.830;12.082;2023-01-08T05:29:57;98574.03;;;23.39;33.42
16100;BME280;8154;50.830;12.082;2023-01-08T05:32:26;98570.41;;;23.34;33.60
16100;BME280;8154;50.830;12.082;2023-01-08T05:34:52;98581.06;;;23.34;33.50
16100;BME280;8154;50.830;12.082;2023-01-08T05:37:20;98581.06;;;23.34;33.84
16100;BME280;8154;50.830;12.082;2023-01-08T05:39:49;98573.72;;;23.23;33.84
16100;BME280;8154;50.830;12.082;2023-01-08T05:42:18;98584.19;;;23.18;33.78
16100;BME280;8154;50.830;12.082;2023-01-08T05:44:46;98583.56;;;23.29;33.76
16100;BME280;8154;50.830;12.082;2023-01-08T05:47:14;98582.25;;;23.38;33.72
16100;BME280;8154;50.830;12.082;2023-01-08T05:49:43;98579.97;;;23.41;33.45
16100;BME280;8154;50.830;12.082;2023-01-08T05:52:11;98583.25;;;23.43;33.63
16100;BME280;8154;50.830;12.082;2023-01-08T05:54:53;98586.81;;;23.31;33.64
16100;BME280;8154;50.830;12.082;2023-01-08T05:57:21;98589.53;;;23.18;34.10
16100;BME280;8154;50.830;12.082;2023-01-08T05:59:48;98581.31;;;23.26;33.92
16100;BME280;8154;50.830;12.082;2023-01-08T06:02:15;98579.44;;;23.33;33.80
16100;BME280;8154;50.830;12.082;2023-01-08T06:04:45;98583.97;;;23.26;33.66
16100;BME280;8154;50.830;12.082;2023-01-08T08:09:33;98488.34;;;23.05;34.14
16100;BME280;8154;50.830;12.082;2023-01-08T08:12:00;98491.94;;;23.17;34.11
16100;BME280;8154;50.830;12.082;2023-01-08T08:14:33;98483.72;;;23.25;33.96
16100;BME280;8154;50.830;12.082;2023-01-08T08:17:20;98492.84;;;23.35;33.58
16100;BME280;8154;50.830;12.082;2023-01-08T08:20:32;98488.06;;;23.44;33.51
16100;BME280;8154;50.830;12.082;2023-01-08T08:23:12;98486.66;;;23.41;33.38
16100;BME280;8154;50.830;12.082;2023-01-08T08:25:42;98468.94;;;23.47;33.37
16100;BME280;8154;50.830;12.082;2023-01-08T08:28:25;98476.84;;;23.35;33.49
16100;BME280;8154;50.830;12.082;2023-01-08T08:31:34;98488.25;;;23.18;34.12
16100;BME280;8154;50.830;12.082;2023-01-08T08:34:08;98491.94;;;23.17;34.16
16100;BME280;8154;50.830;12.082;2023-01-08T08:36:44;98494.59;;;23.17;33.82
16100;BME280;8154;50.830;12.082;2023-01-08T08:39:12;98489.06;;;23.18;34.07
16100;BME280;8154;50.830;12.082;2023-01-08T08:41:46;98495.22;;;23.19;33.88
16100;BME280;8154;50.830;12.082;2023-01-08T08:44:23;98484.50;;;23.25;33.75
16100;BME280;8154;50.830;12.082;2023-01-08T08:46:53;98494.88;;;23.40;33.60
16100;BME280;8154;50.830;12.082;2023-01-08T08:49:25;98503.03;;;23.45;33.52
16100;BME280;8154;50.830;12.082;2023-01-08T08:52:04;98503.03;;;23.45;33.54
16100;BME280;8154;50.830;12.082;2023-01-08T08:54:34;98511.22;;;23.50;33.60
16100;BME280;8154;50.830;12.082;2023-01-08T08:57:13;98508.38;;;23.45;33.61
16100;BME280;8154;50.830;12.082;2023-01-08T08:59:48;98515.44;;;23.33;33.84
16100;BME280;8154;50.830;12.082;2023-01-08T09:02:17;98512.63;;;23.21;33.96
16100;BME280;8154;50.830;12.082;2023-01-08T09:04:48;98524.53;;;23.19;33.87
16100;BME280;8154;50.830;12.082;2023-01-08T09:07:15;98517.56;;;23.18;34.06
16100;BME280;8154;50.830;12.082;2023-01-08T09:09:41;98514.75;;;23.13;34.08
16100;BME280;8154;50.830;12.082;2023-01-08T09:12:34;98519.22;;;23.19;34.05
16100;BME280;8154;50.830;12.082;2023-01-08T09:15:02;98522.84;;;23.31;33.92
16100;BME280;8154;50.830;12.082;2023-01-08T09:20:46;98527.91;;;23.39;33.78
16100;BME280;8154;50.830;12.082;2023-01-08T09:23:18;98519.03;;;23.45;33.40
16100;BME280;8154;50.830;12.082;2023-01-08T09:25:44;98521.09;;;23.43;33.49
16100;BME280;8154;50.830;12.082;2023-01-08T09:28:11;98533.06;;;23.34;33.67
16100;BME280;8154;50.830;12.082;2023-01-08T09:30:50;98532.47;;;23.32;33.81
16100;BME280;8154;50.830;12.082;2023-01-08T09:33:16;98533.50;;;23.24;33.83
16100;BME280;8154;50.830;12.082;2023-01-08T09:36:21;98539.06;;;23.23;33.78
16100;BME280;8154;50.830;12.082;2023-01-08T09:39:29;98529.44;;;23.22;34.01
16100;BME280;8154;50.830;12.082;2023-01-08T09:41:56;98526.03;;;23.08;34.25
16100;BME280;8154;50.830;12.082;2023-01-08T09:44:48;98535.63;;;23.16;34.20
16100;BME280;8154;50.830;12.082;2023-01-08T09:47:38;98521.63;;;23.27;33.88
16100;BME280;8154;50.830;12.082;2023-01-08T09:50:12;98515.00;;;23.36;33.85
16100;BME280;8154;50.830;12.082;2023-01-08T09:52:39;98510.44;;;23.43;33.55
16100;BME280;8154;50.830;12.082;2023-01-08T09:55:12;98517.47;;;23.37;33.73
16100;BME280;8154;50.830;12.082;2023-01-08T09:57:46;98527.13;;;23.32;33.68
16100;BME280;8154;50.830;12.082;2023-01-08T10:00:16;98529.13;;;23.36;33.74
16100;BME280;8154;50.830;12.082;2023-01-08T10:02:44;98533.91;;;23.34;33.51
16100;BME280;8154;50.830;12.082;2023-01-08T10:05:16;98524.06;;;23.28;33.70
16100;BME280;8154;50.830;12.082;2023-01-08T10:07:45;98524.09;;;23.22;33.76
16100;BME280;8154;50.830;12.082;2023-01-08T10:13:28;98512.19;;;23.31;33.82
16100;BME280;8154;50.830;12.082;2023-01-08T10:15:54;98516.75;;;23.17;33.90
16100;BME280;8154;50.830;12.082;2023-01-08T10:18:22;98525.00;;;23.09;34.28
16100;BME280;8154;50.830;12.082;2023-01-08T10:20:50;98521.22;;;23.23;33.94
16100;BME280;8154;50.830;12.082;2023-01-08T10:23:18;98509.50;;;23.31;33.79
16100;BME280;8154;50.830;12.082;2023-01-08T10:25:56;98515.88;;;23.30;33.78
16100;BME280;8154;50.830;12.082;2023-01-08T10:28:25;98509.50;;;23.31;33.95
16100;BME280;8154;50.830;12.082;2023-01-08T10:31:18;98502.56;;;23.30;33.73
16100;BME280;8154;50.830;12.082;2023-01-08T10:33:46;98499.50;;;23.26;33.83
16100;BME280;8154;50.830;12.082;2023-01-08T10:36:22;98493.34;;;23.26;33.90
16100;BME280;8154;50.830;12.082;2023-01-08T10:39:29;98475.72;;;23.18;34.06
16100;BME280;8154;50.830;12.082;2023-01-08T10:42:05;98482.38;;;23.09;34.12
16100;BME280;8154;50.830;12.082;2023-01-08T10:47:58;98482.25;;;23.29;33.78
16100;BME280;8154;50.830;12.082;2023-01-08T10:50:28;98482.25;;;23.29;33.68
16100;BME280;8154;50.830;12.082;2023-01-08T10:52:58;98469.09;;;23.34;33.87
16100;BME280;8154;50.830;12.082;2023-01-08T10:55:27;98469.72;;;23.29;33.63
16100;BME280;8154;50.830;12.082;2023-01-08T10:57:59;98467.06;;;23.29;33.80
16100;BME280;8154;50.830;12.082;2023-01-08T11:00:29;98463.78;;;23.27;33.77
16100;BME280;8154;50.830;12.082;2023-01-08T11:02:59;98448.78;;;23.33;33.78
16100;BME280;8154;50.830;12.082;2023-01-08T11:05:34;98449.06;;;23.25;33.69
16100;BME280;8154;50.830;12.082;2023-01-08T11:08:16;98445.75;;;23.23;33.98
16100;BME280;8154;50.830;12.082;2023-01-08T11:21:22;98428.47;;;23.32;33.64
16100;BME280;8154;50.830;12.082;2023-01-08T11:24:17;98418.66;;;23.32;33.77
16100;BME280;8154;50.830;12.082;2023-01-08T11:26:49;98423.53;;;23.35;33.52
16100;BME280;8154;50.830;12.082;2023-01-08T11:29:22;98413.16;;;23.27;33.89
16100;BME280;8154;50.830;12.082;2023-01-08T11:35:12;98414.09;;;23.08;34.20
16100;BME280;8154;50.830;12.082;2023-01-08T11:37:48;98408.53;;;23.10;34.19
16100;BME280;8154;50.830;12.082;2023-01-08T11:40:17;98404.81;;;23.17;33.98
16100;BME280;8154;50.830;12.082;2023-01-08T11:59:32;98400.19;;;23.31;33.77
16100;BME280;8154;50.830;12.082;2023-01-08T12:05:23;98397.47;;;23.13;34.14
16100;BME280;8154;50.830;12.082;2023-01-08T12:11:16;98392.16;;;23.13;34.10
16100;BME280;8154;50.830;12.082;2023-01-08T12:20:36;98390.78;;;23.28;33.76
16100;BME280;8154;50.830;12.082;2023-01-08T12:37:22;98372.66;;;23.12;33.90
16100;BME280;8154;50.830;12.082;2023-01-08T12:42:45;98371.53;;;23.26;33.96
16100;BME280;8154;50.830;12.082;2023-01-08T12:46:06;98371.34;;;23.21;33.84
16100;BME280;8154;50.830;12.082;2023-01-08T12:48:35;98368.72;;;23.15;34.08
16100;BME280;8154;50.830;12.082;2023-01-08T12:54:01;98358.78;;;23.28;33.64
16100;BME280;8154;50.830;12.082;2023-01-08T12:56:54;98360.06;;;23.26;33.72
16100;BME280;8154;50.830;12.082;2023-01-08T12:59:53;98350.22;;;23.26;33.72
16100;BME280;8154;50.830;12.082;2023-01-08T13:03:11;98346.09;;;23.24;33.86
16100;BME280;8154;50.830;12.082;2023-01-08T13:05:48;98340.63;;;23.19;34.07
16100;BME280;8154;50.830;12.082;2023-01-08T13:08:36;98333.50;;;23.13;34.16
16100;BME280;8154;50.830;12.082;2023-01-08T13:11:52;98330.09;;;23.24;33.93
16100;BME280;8154;50.830;12.082;2023-01-08T13:14:21;98339.13;;;23.23;33.74
16100;BME280;8154;50.830;12.082;2023-01-08T13:17:13;98336.31;;;23.18;33.83
16100;BME280;8154;50.830;12.082;2023-01-08T13:22:55;98308.69;;;23.12;34.04
16100;BME280;8154;50.830;12.082;2023-01-08T13:25:30;98314.63;;;23.14;34.11
16100;BME280;8154;50.830;12.082;2023-01-08T13:28:27;98306.19;;;23.17;34.08
16100;BME280;8154;50.830;12.082;2023-01-08T15:20:14;98287.84;;;23.27;33.49
16100;BME280;8154;50.830;12.082;2023-01-08T15:23:21;98283.00;;;23.18;33.73
16100;BME280;8154;50.830;12.082;2023-01-08T15:25:51;98284.72;;;23.12;33.88
16100;BME280;8154;50.830;12.082;2023-01-08T15:28:18;98281.59;;;23.15;33.78
16100;BME280;8154;50.830;12.082;2023-01-08T15:30:47;98270.78;;;23.10;33.98
16100;BME280;8154;50.830;12.082;2023-01-08T15:35:40;98251.03;;;23.18;33.71
16100;BME280;8154;50.830;12.082;2023-01-08T15:38:06;98249.69;;;23.09;34.08
16100;BME280;8154;50.830;12.082;2023-01-08T15:40:35;98253.91;;;23.16;33.96
16100;BME280;8154;50.830;12.082;2023-01-08T15:43:01;98261.84;;;23.23;33.73
16100;BME280;8154;50.830;12.082;2023-01-08T15:45:41;98256.34;;;23.18;33.68
16100;BME280;8154;50.830;12.082;2023-01-08T15:48:30;98245.34;;;23.14;33.79
16100;BME280;8154;50.830;12.082;2023-01-08T15:50:56;98252.34;;;23.09;34.00
16100;BME280;8154;50.830;12.082;2023-01-08T15:53:22;98257.47;;;23.10;34.01
16100;BME280;8154;50.830;12.082;2023-01-08T15:55:50;98255.63;;;23.11;33.78
16100;BME280;8154;50.830;12.082;2023-01-08T15:58:17;98264.06;;;23.08;34.00
16100;BME280;8154;50.830;12.082;2023-01-08T16:00:46;98257.41;;;23.17;33.93
16100;BME280;8154;50.830;12.082;2023-01-08T16:03:13;98255.69;;;23.22;33.78
16100;BME280;8154;50.830;12.082;2023-01-08T16:05:40;98250.56;;;23.21;33.82
16100;BME280;8154;50.830;12.082;2023-01-08T16:08:08;98255.69;;;23.22;33.75
16100;BME280;8154;50.830;12.082;2023-01-08T16:10:34;98247.66;;;23.29;33.59
16100;BME280;8154;50.830;12.082;2023-01-08T16:13:01;98238.81;;;23.28;33.46
16100;BME280;8154;50.830;12.082;2023-01-08T16:15:27;98240.34;;;23.18;33.70
16100;BME280;8154;50.830;12.082;2023-01-08T16:17:55;98229.91;;;23.16;33.90
16100;BME280;8154;50.830;12.082;2023-01-08T16:20:23;98232.25;;;23.13;33.79
16100;BME280;8154;50.830;12.082;2023-01-08T16:23:33;98239.41;;;23.12;33.62
16100;BME280;8154;50.830;12.082;2023-01-08T16:26:15;98244.66;;;23.19;33.74
16100;BME280;8154;50.830;12.082;2023-01-08T16:28:41;98243.63;;;23.20;33.89
16100;BME280;8154;50.830;12.082;2023-01-08T16:31:09;98244.97;;;23.11;34.01
16100;BME280;8154;50.830;12.082;2023-01-08T16:33:36;98249.09;;;23.07;34.01
16100;BME280;8154;50.830;12.082;2023-01-08T16:36:35;98251.47;;;23.15;33.89
16100;BME280;8154;50.830;12.082;2023-01-08T16:39:02;98250.13;;;23.24;33.74
16100;BME280;8154;50.830;12.082;2023-01-08T16:45:29;98243.13;;;23.29;33.48
16100;BME280;8154;50.830;12.082;2023-01-08T16:47:56;98237.13;;;23.16;33.82
16100;BME280;8154;50.830;12.082;2023-01-08T16:50:28;98231.78;;;23.16;33.86
16100;BME280;8154;50.830;12.082;2023-01-08T16:53:16;98233.56;;;23.22;33.86
16100;BME280;8154;50.830;12.082;2023-01-08T16:55:50;98236.00;;;23.23;33.82
16100;BME280;8154;50.830;12.082;2023-01-08T17:59:22;98162.50;;;23.16;33.95
16100;BME280;8154;50.830;12.082;2023-01-08T18:01:51;98159.16;;;23.20;33.74
16100;BME280;8154;50.830;12.082;2023-01-08T18:04:18;98140.50;;;23.20;33.92
16100;BME280;8154;50.830;12.082;2023-01-08T18:06:44;98153.75;;;23.27;33.74
16100;BME280;8154;50.830;12.082;2023-01-08T18:09:46;98144.78;;;23.21;33.82
16100;BME280;8154;50.830;12.082;2023-01-08T18:12:50;98143.09;;;23.27;33.54
16100;BME280;8154;50.830;12.082;2023-01-08T18:15:17;98143.09;;;23.27;33.82
16100;BME280;8154;50.830;12.082;2023-01-08T18:17:43;98148.00;;;23.30;33.61
16100;BME280;8154;50.830;12.082;2023-01-08T18:20:09;98149.31;;;23.39;33.52
16100;BME280;8154;50.830;12.082;2023-01-08T18:22:36;98145.97;;;23.43;33.30
16100;BME280;8154;50.830;12.082;2023-01-08T18:25:14;98136.31;;;23.42;33.42
16100;BME280;8154;50.830;12.082;2023-01-08T18:27:41;98132.25;;;23.40;33.61
16100;BME280;8154;50.830;12.082;2023-01-08T18:30:08;98135.59;;;23.35;33.41
16100;BME280;8154;50.830;12.082;2023-01-08T18:33:07;98148.72;;;23.37;33.70
16100;BME280;8154;50.830;12.082;2023-01-08T18:36:04;98155.84;;;23.25;33.70
16100;BME280;8154;50.830;12.082;2023-01-08T18:39:07;98150.78;;;23.17;34.04
16100;BME280;8154;50.830;12.082;2023-01-08T18:42:03;98137.34;;;23.30;33.69
16100;BME280;8154;50.830;12.082;2023-01-08T18:44:56;98120.75;;;23.28;33.68
16100;BME280;8154;50.830;12.082;2023-01-08T18:47:24;98133.09;;;23.40;33.48
16100;BME280;8154;50.830;12.082;2023-01-08T18:49:53;98121.97;;;23.43;33.36
16100;BME280;8154;50.830;12.082;2023-01-08T18:52:32;98109.31;;;23.39;33.52
16100;BME280;8154;50.830;12.082;2023-01-08T18:54:58;98105.44;;;23.35;33.74
16100;BME280;8154;50.830;12.082;2023-01-08T19:57:41;98068.22;;;23.28;33.60
16100;BME280;8154;50.830;12.082;2023-01-08T20:00:09;98066.50;;;23.34;33.90
16100;BME280;8154;50.830;12.082;2023-01-08T20:02:51;98066.09;;;23.19;33.72
16100;BME280;8154;50.830;12.082;2023-01-08T20:05:39;98066.22;;;23.24;33.85
16100;BME280;8154;50.830;12.082;2023-01-08T20:08:11;98059.56;;;23.33;33.75
16100;BME280;8154;50.830;12.082;2023-01-08T20:10:39;98050.06;;;23.37;33.70
16100;BME280;8154;50.830;12.082;2023-01-08T20:13:13;98033.75;;;23.45;33.61
16100;BME280;8154;50.830;12.082;2023-01-08T20:15:54;98028.28;;;23.40;33.72
16100;BME280;8154;50.830;12.082;2023-01-08T20:18:25;98023.53;;;23.42;33.43
16100;BME280;8154;50.830;12.082;2023-01-08T20:21:09;98038.13;;;23.39;33.64
16100;BME280;8154;50.830;12.082;2023-01-08T20:23:39;98037.06;;;23.29;33.70
16100;BME280;8154;50.830;12.082;2023-01-08T20:26:15;98044.47;;;23.27;33.84
16100;BME280;8154;50.830;12.082;2023-01-08T20:28:53;98049.94;;;23.32;33.83
16100;BME280;8154;50.830;12.082;2023-01-08T20:31:24;98036.03;;;23.41;33.49
16100;BME280;8154;50.830;12.082;2023-01-08T20:33:56;98042.31;;;23.47;33.29
16100;BME280;8154;50.830;12.082;2023-01-08T20:36:30;98034.91;;;23.49;33.28
16100;BME280;8154;50.830;12.082;2023-01-08T20:39:02;98037.47;;;23.55;33.12
16100;BME280;8154;50.830;12.082;2023-01-08T20:41:32;98027.03;;;23.54;33.25
16100;BME280;8154;50.830;12.082;2023-01-08T20:44:02;98020.63;;;23.55;33.09
16100;BME280;8154;50.830;12.082;2023-01-08T20:46:37;98019.13;;;23.36;33.73
16100;BME280;8154;50.830;12.082;2023-01-08T20:49:13;98017.44;;;23.23;33.83
16100;BME280;8154;50.830;12.082;2023-01-08T20:51:50;98009.00;;;23.26;33.83
16100;BME280;8154;50.830;12.082;2023-01-08T20:54:21;98006.81;;;23.35;33.59
16100;BME280;8154;50.830;12.082;2023-01-08T20:56:49;98004.41;;;23.45;33.34
16100;BME280;8154;50.830;12.082;2023-01-08T21:58:04;97931.13;;;23.47;33.29
16100;BME280;8154;50.830;12.082;2023-01-08T22:00:37;97931.13;;;23.47;33.50
16100;BME280;8154;50.830;12.082;2023-01-08T22:03:07;97919.53;;;23.53;33.27
16100;BME280;8154;50.830;12.082;2023-01-08T22:05:44;97912.72;;;23.46;33.48
16100;BME280;8154;50.830;12.082;2023-01-08T22:09:03;97916.50;;;23.27;33.68
16100;BME280;8154;50.830;12.082;2023-01-08T22:11:46;97908.63;;;23.20;33.68
16100;BME280;8154;50.830;12.082;2023-01-08T22:14:16;97907.84;;;23.31;33.52
16100;BME280;8154;50.830;12.082;2023-01-08T22:17:04;97912.03;;;23.39;33.45
16100;BME280;8154;50.830;12.082;2023-01-08T22:19:40;97905.31;;;23.48;33.23
16100;BME280;8154;50.830;12.082;2023-01-08T22:22:07;97905.75;;;23.45;33.61
16100;BME280;8154;50.830;12.082;2023-01-08T22:24:37;97916.78;;;23.48;33.32
16100;BME280;8154;50.830;12.082;2023-01-08T22:27:19;97903.31;;;23.55;33.33
16100;BME280;8154;50.830;12.082;2023-01-08T22:30:00;97901.69;;;23.54;33.13
16100;BME280;8154;50.830;12.082;2023-01-08T22:32:30;97901.22;;;23.57;33.23
16100;BME280;8154;50.830;12.082;2023-01-08T22:35:01;97896.72;;;23.46;33.23
16100;BME280;8154;50.830;12.082;2023-01-08T22:37:33;97886.16;;;23.28;33.81
16100;BME280;8154;50.830;12.082;2023-01-08T22:40:04;97883.69;;;23.15;34.05
16100;BME280;8154;50.830;12.082;2023-01-08T22:42:32;97876.78;;;23.25;33.51
16100;BME280;8154;50.830;12.082;2023-01-08T22:45:01;97879.91;;;23.34;33.46
16100;BME280;8154;50.830;12.082;2023-01-08T22:47:38;97879.09;;;23.45;33.33
16100;BME280;8154;50.830;12.082;2023-01-08T22:50:07;97869.56;;;23.49;33.32
16100;BME280;8154;50.830;12.082;2023-01-08T22:52:35;97869.34;;;23.50;33.17
16100;BME280;8154;50.830;12.082;2023-01-08T22:55:05;97861.69;;;23.54;33.22
16100;BME280;8154;50.830;12.082;2023-01-08T22:57:35;97866.69;;;23.50;33.33
16100;BME280;8154;50.830;12.082;2023-01-08T23:00:09;97873.41;;;23.41;33.48
16100;BME280;8154;50.830;12.082;2023-01-08T23:02:45;97873.19;;;23.31;33.65
16100;BME280;8154;50.830;12.082;2023-01-08T23:05:17;97875.41;;;23.34;33.52
16100;BME280;8154;50.830;12.082;2023-01-08T23:08:20;97868.91;;;23.42;33.41
16100;BME280;8154;50.830;12.082;2023-01-08T23:11:35;97855.81;;;23.40;33.38
16100;BME280;8154;50.830;12.082;2023-01-08T23:14:05;97855.56;;;23.42;33.31
16100;BME280;8154;50.830;12.082;2023-01-08T23:16:47;97857.06;;;23.38;33.44
16100;BME280;8154;50.830;12.082;2023-01-08T23:19:19;97838.78;;;23.30;33.51
16100;BME280;8154;50.830;12.082;2023-01-08T23:22:00;97837.84;;;23.36;33.33
16100;BME280;8154;50.830;12.082;2023-01-08T23:24:33;97835.63;;;23.44;33.28
16100;BME280;8154;50.830;12.082;2023-01-08T23:27:05;97818.97;;;23.37;33.31
16100;BME280;8154;50.830;12.082;2023-01-08T23:29:32;97821.28;;;23.34;33.38
